sensor_id;sensor_type;location;lat;lon;timestamp;temperature;humidity
6174;DHT22;3120;48.796;9.796;2023-12-14T00:00:48;5.40;99.90
6174;DHT22;3120;48.796;9.796;2023-12-14T00:03:14;5.40;99.90
6174;DHT22;3120;48.796;9.796;2023-12-14T00:05:40;5.30;99.90
6174;DHT22;3120;48.796;9.796;2023-12-14T00:08:06;5.30;99.90
6174;DHT22;3120;48.796;9.796;2023-12-14T00:10:31;5.30;99.90
6174;DHT22;3120;48.796;9.796;2023-12-14T00:12:57;5.30;99.90
6174;DHT22;3120;48.796;9.796;2023-12-14T00:15:22;5.30;99.90
6174;DHT22;3120;48.796;9.796;2023-12-14T00:17:48;5.30;99.90
6174;DHT22;3120;48.796;9.796;2023-12-14T00:20:13;5.30;99.90
6174;DHT22;3120;48.796;9.796;2023-12-14T00:22:40;5.30;99.90
6174;DHT22;3120;48.796;9.796;2023-12-14T00:25:05;5.30;99.90
6174;DHT22;3120;48.796;9.796;2023-12-14T00:27:31;5.30;99.90
6174;DHT22;3120;48.796;9.796;2023-12-14T00:29:56;5.30;99.90
6174;DHT22;3120;48.796;9.796;2023-12-14T00:32:22;5.20;99.90
6174;DHT22;3120;48.796;9.796;2023-12-14T00:34:47;5.20;99.90
6174;DHT22;3120;48.796;9.796;2023-12-14T00:37:14;5.30;99.90
6174;DHT22;3120;48.796;9.796;2023-12-14T00:39:40;5.30;99.90
6174;DHT22;3120;48.796;9.796;2023-12-14T00:42:05;5.30;99.90
6174;DHT22;3120;48.796;9.796;2023-12-14T00:44:31;5.30;99.90
6174;DHT22;3120;48.796;9.796;2023-12-14T00:46:56;5.30;99.90
6174;DHT22;3120;48.796;9.796;2023-12-14T00:49:23;5.40;99.90
6174;DHT22;3120;48.796;9.796;2023-12-14T00:51:49;5.40;99.90
6174;DHT22;3120;48.796;9.796;2023-12-14T00:54:15;5.40;99.90
6174;DHT22;3120;48.796;9.796;2023-12-14T00:56:40;5.40;99.90
6174;DHT22;3120;48.796;9.796;2023-12-14T00:59:06;5.30;99.90
6174;DHT22;3120;48.796;9.796;2023-12-14T01:01:31;5.30;99.90
6174;DHT22;3120;48.796;9.796;2023-12-14T01:03:57;5.30;99.90
6174;DHT22;3120;48.796;9.796;2023-12-14T01:06:24;5.30;99.90
6174;DHT22;3120;48.796;9.796;2023-12-14T01:08:50;5.30;99.90
6174;DHT22;3120;48.796;9.796;2023-12-14T01:11:15;5.30;99.90
6174;DHT22;3120;48.796;9.796;2023-12-14T01:13:41;5.30;99.90
6174;DHT22;3120;48.796;9.796;2023-12-14T01:16:07;5.40;99.90
6174;DHT22;3120;48.796;9.796;2023-12-14T01:18:32;5.50;99.90
6174;DHT22;3120;48.796;9.796;2023-12-14T01:20:58;5.40;99.90
6174;DHT22;3120;48.796;9.796;2023-12-14T01:23:24;5.40;99.90
6174;DHT22;3120;48.796;9.796;2023-12-14T01:25:49;5.40;99.90
6174;DHT22;3120;48.796;9.796;2023-12-14T01:28:15;5.30;99.90
6174;DHT22;3120;48.796;9.796;2023-12-14T01:30:40;5.30;99.90
6174;DHT22;3120;48.796;9.796;2023-12-14T01:33:06;5.30;99.90
6174;DHT22;3120;48.796;9.796;2023-12-14T01:35:31;5.30;99.90
6174;DHT22;3120;48.796;9.796;2023-12-14T01:37:57;5.30;99.90
6174;DHT22;3120;48.796;9.796;2023-12-14T01:40:22;5.30;99.90
6174;DHT22;3120;48.796;9.796;2023-12-14T01:42:48;5.40;99.90
6174;DHT22;3120;48.796;9.796;2023-12-14T01:45:13;5.50;99.90
6174;DHT22;3120;48.796;9.796;2023-12-14T01:47:42;5.50;99.90
6174;DHT22;3120;48.796;9.796;2023-12-14T01:50:08;5.60;99.90
6174;DHT22;3120;48.796;9.796;2023-12-14T01:52:34;5.50;99.90
6174;DHT22;3120;48.796;9.796;2023-12-14T01:54:59;5.50;99.90
6174;DHT22;3120;48.796;9.796;2023-12-14T01:57:25;5.60;99.90
6174;DHT22;3120;48.796;9.796;2023-12-14T01:59:50;5.60;99.90
6174;DHT22;3120;48.796;9.796;2023-12-14T02:02:16;5.60;99.90
6174;DHT22;3120;48.796;9.796;2023-12-14T02:04:41;5.60;99.90
6174;DHT22;3120;48.796;9.796;2023-12-14T02:07:07;5.60;99.90
6174;DHT22;3120;48.796;9.796;2023-12-14T02:09:33;5.60;99.90
6174;DHT22;3120;48.796;9.796;2023-12-14T02:11:58;5.50;99.90
6174;DHT22;3120;48.796;9.796;2023-12-14T02:14:24;5.50;99.90
6174;DHT22;3120;48.796;9.796;2023-12-14T02:16:49;5.50;99.90
6174;DHT22;3120;48.796;9.796;2023-12-14T02:19:15;5.50;99.90
6174;DHT22;3120;48.796;9.796;2023-12-14T02:21:40;5.40;99.90
6174;DHT22;3120;48.796;9.796;2023-12-14T02:24:06;5.40;99.90
6174;DHT22;3120;48.796;9.796;2023-12-14T02:26:31;5.50;99.90
6174;DHT22;3120;48.796;9.796;2023-12-14T02:28:57;5.50;99.90
6174;DHT22;3120;48.796;9.796;2023-12-14T02:31:23;5.50;99.90
6174;DHT22;3120;48.796;9.796;2023-12-14T02:33:48;5.40;99.90
6174;DHT22;3120;48.796;9.796;2023-12-14T02:36:14;5.50;99.90
6174;DHT22;3120;48.796;9.796;2023-12-14T02:38:39;5.40;99.90
6174;DHT22;3120;48.796;9.796;2023-12-14T02:41:05;5.40;99.90
6174;DHT22;3120;48.796;9.796;2023-12-14T02:43:30;5.40;99.90
6174;DHT22;3120;48.796;9.796;2023-12-14T02:45:56;5.40;99.90
6174;DHT22;3120;48.796;9.796;2023-12-14T02:48:27;5.30;99.90
6174;DHT22;3120;48.796;9.796;2023-12-14T02:50:53;5.30;99.90
6174;DHT22;3120;48.796;9.796;2023-12-14T02:53:19;5.40;99.90
6174;DHT22;3120;48.796;9.796;2023-12-14T02:55:45;5.40;99.90
6174;DHT22;3120;48.796;9.796;2023-12-14T02:58:10;5.40;99.90
6174;DHT22;3120;48.796;9.796;2023-12-14T03:00:36;5.40;99.90
6174;DHT22;3120;48.796;9.796;2023-12-14T03:03:01;5.30;99.90
6174;DHT22;3120;48.796;9.796;2023-12-14T03:05:27;5.40;99.90
6174;DHT22;3120;48.796;9.796;2023-12-14T03:07:52;5.50;99.90
6174;DHT22;3120;48.796;9.796;2023-12-14T03:10:18;5.60;99.90
6174;DHT22;3120;48.796;9.796;2023-12-14T03:12:44;5.60;99.90
6174;DHT22;3120;48.796;9.796;2023-12-14T03:15:09;5.60;99.90
6174;DHT22;3120;48.796;9.796;2023-12-14T03:17:35;5.50;99.90
6174;DHT22;3120;48.796;9.796;2023-12-14T03:20:01;5.50;99.90
6174;DHT22;3120;48.796;9.796;2023-12-14T03:22:28;5.50;99.90
6174;DHT22;3120;48.796;9.796;2023-12-14T03:24:54;5.40;99.90
6174;DHT22;3120;48.796;9.796;2023-12-14T03:27:19;5.40;99.90
6174;DHT22;3120;48.796;9.796;2023-12-14T03:29:46;5.40;99.90
6174;DHT22;3120;48.796;9.796;2023-12-14T03:32:11;5.50;99.90
6174;DHT22;3120;48.796;9.796;2023-12-14T03:34:37;5.60;99.90
6174;DHT22;3120;48.796;9.796;2023-12-14T03:37:03;5.60;99.90
6174;DHT22;3120;48.796;9.796;2023-12-14T03:39:28;5.60;99.90
6174;DHT22;3120;48.796;9.796;2023-12-14T03:41:54;5.60;99.90
6174;DHT22;3120;48.796;9.796;2023-12-14T03:44:19;5.60;99.90
6174;DHT22;3120;48.796;9.796;2023-12-14T03:46:45;5.70;99.90
6174;DHT22;3120;48.796;9.796;2023-12-14T03:49:10;5.70;99.90
6174;DHT22;3120;48.796;9.796;2023-12-14T03:51:36;5.70;99.90
6174;DHT22;3120;48.796;9.796;2023-12-14T03:54:01;5.70;99.90
6174;DHT22;3120;48.796;9.796;2023-12-14T03:56:27;5.80;99.90
6174;DHT22;3120;48.796;9.796;2023-12-14T03:58:52;5.70;99.90
6174;DHT22;3120;48.796;9.796;2023-12-14T04:01:19;5.70;99.90
6174;DHT22;3120;48.796;9.796;2023-12-14T04:03:45;5.70;99.90
6174;DHT22;3120;48.796;9.796;2023-12-14T04:06:14;5.70;99.90
6174;DHT22;3120;48.796;9.796;2023-12-14T04:08:40;5.60;99.90
6174;DHT22;3120;48.796;9.796;2023-12-14T04:11:06;5.60;99.90
6174;DHT22;3120;48.796;9.796;2023-12-14T04:13:32;5.60;99.90
6174;DHT22;3120;48.796;9.796;2023-12-14T04:15:58;5.50;99.90
6174;DHT22;3120;48.796;9.796;2023-12-14T04:18:24;5.50;99.90
6174;DHT22;3120;48.796;9.796;2023-12-14T04:20:50;5.60;99.90
6174;DHT22;3120;48.796;9.796;2023-12-14T04:23:15;5.60;99.90
6174;DHT22;3120;48.796;9.796;2023-12-14T04:25:41;5.60;99.90
6174;DHT22;3120;48.796;9.796;2023-12-14T04:28:06;5.50;99.90
6174;DHT22;3120;48.796;9.796;2023-12-14T04:30:32;5.50;99.90
6174;DHT22;3120;48.796;9.796;2023-12-14T04:32:57;5.50;99.90
6174;DHT22;3120;48.796;9.796;2023-12-14T04:35:23;5.40;99.90
6174;DHT22;3120;48.796;9.796;2023-12-14T04:37:49;5.40;99.90
6174;DHT22;3120;48.796;9.796;2023-12-14T04:40:14;5.40;99.90
6174;DHT22;3120;48.796;9.796;2023-12-14T04:42:40;5.40;99.90
6174;DHT22;3120;48.796;9.796;2023-12-14T04:45:06;5.40;99.90
6174;DHT22;3120;48.796;9.796;2023-12-14T04:47:32;5.40;99.90
6174;DHT22;3120;48.796;9.796;2023-12-14T04:49:57;5.40;99.90
6174;DHT22;3120;48.796;9.796;2023-12-14T04:52:23;5.40;99.90
6174;DHT22;3120;48.796;9.796;2023-12-14T04:54:48;5.40;99.90
6174;DHT22;3120;48.796;9.796;2023-12-14T04:57:14;5.40;99.90
6174;DHT22;3120;48.796;9.796;2023-12-14T04:59:41;5.40;99.90
6174;DHT22;3120;48.796;9.796;2023-12-14T05:02:07;5.50;99.90
6174;DHT22;3120;48.796;9.796;2023-12-14T05:04:33;5.50;99.90
6174;DHT22;3120;48.796;9.796;2023-12-14T05:06:58;5.50;99.90
6174;DHT22;3120;48.796;9.796;2023-12-14T05:09:24;5.50;99.90
6174;DHT22;3120;48.796;9.796;2023-12-14T05:11:49;5.60;99.90
6174;DHT22;3120;48.796;9.796;2023-12-14T05:14:15;5.60;99.90
6174;DHT22;3120;48.796;9.796;2023-12-14T05:16:40;5.60;99.90
6174;DHT22;3120;48.796;9.796;2023-12-14T05:19:06;5.60;99.90
6174;DHT22;3120;48.796;9.796;2023-12-14T05:21:31;5.50;99.90
6174;DHT22;3120;48.796;9.796;2023-12-14T05:23:57;5.60;99.90
6174;DHT22;3120;48.796;9.796;2023-12-14T05:26:22;5.70;99.90
6174;DHT22;3120;48.796;9.796;2023-12-14T05:28:48;5.70;99.90
6174;DHT22;3120;48.796;9.796;2023-12-14T05:31:13;5.70;99.90
6174;DHT22;3120;48.796;9.796;2023-12-14T05:33:39;5.70;99.90
6174;DHT22;3120;48.796;9.796;2023-12-14T05:36:06;5.60;99.90
6174;DHT22;3120;48.796;9.796;2023-12-14T05:38:34;5.50;99.90
6174;DHT22;3120;48.796;9.796;2023-12-14T05:41:00;5.60;99.90
6174;DHT22;3120;48.796;9.796;2023-12-14T05:43:25;5.60;99.90
6174;DHT22;3120;48.796;9.796;2023-12-14T05:45:51;5.60;99.90
6174;DHT22;3120;48.796;9.796;2023-12-14T05:48:16;5.60;99.90
6174;DHT22;3120;48.796;9.796;2023-12-14T05:50:42;5.60;99.90
6174;DHT22;3120;48.796;9.796;2023-12-14T05:53:07;5.70;99.90
6174;DHT22;3120;48.796;9.796;2023-12-14T05:55:33;5.70;99.90
6174;DHT22;3120;48.796;9.796;2023-12-14T05:57:58;5.80;99.90
6174;DHT22;3120;48.796;9.796;2023-12-14T06:00:24;5.90;99.90
6174;DHT22;3120;48.796;9.796;2023-12-14T06:02:49;5.90;99.90
6174;DHT22;3120;48.796;9.796;2023-12-14T06:05:15;5.90;99.90
6174;DHT22;3120;48.796;9.796;2023-12-14T06:07:41;5.90;99.90
6174;DHT22;3120;48.796;9.796;2023-12-14T06:10:06;5.90;99.90
6174;DHT22;3120;48.796;9.796;2023-12-14T06:12:32;5.90;99.90
6174;DHT22;3120;48.796;9.796;2023-12-14T06:14:57;5.90;99.90
6174;DHT22;3120;48.796;9.796;2023-12-14T06:17:23;5.90;99.90
6174;DHT22;3120;48.796;9.796;2023-12-14T06:19:49;6.00;99.90
6174;DHT22;3120;48.796;9.796;2023-12-14T06:22:14;5.90;99.90
6174;DHT22;3120;48.796;9.796;2023-12-14T06:24:40;5.90;99.90
6174;DHT22;3120;48.796;9.796;2023-12-14T06:27:05;5.90;99.90
6174;DHT22;3120;48.796;9.796;2023-12-14T06:29:31;5.90;99.90
6174;DHT22;3120;48.796;9.796;2023-12-14T06:31:56;6.00;99.90
6174;DHT22;3120;48.796;9.796;2023-12-14T06:34:22;6.00;99.90
6174;DHT22;3120;48.796;9.796;2023-12-14T06:36:47;6.00;99.90
6174;DHT22;3120;48.796;9.796;2023-12-14T06:39:13;6.00;99.90
6174;DHT22;3120;48.796;9.796;2023-12-14T06:41:38;6.00;99.90
6174;DHT22;3120;48.796;9.796;2023-12-14T06:44:04;5.90;99.90
6174;DHT22;3120;48.796;9.796;2023-12-14T06:46:30;5.80;99.90
6174;DHT22;3120;48.796;9.796;2023-12-14T06:48:56;5.80;99.90
6174;DHT22;3120;48.796;9.796;2023-12-14T06:51:22;5.70;99.90
6174;DHT22;3120;48.796;9.796;2023-12-14T06:53:48;5.70;99.90
6174;DHT22;3120;48.796;9.796;2023-12-14T06:56:14;5.80;99.90
6174;DHT22;3120;48.796;9.796;2023-12-14T06:58:41;5.90;99.90
6174;DHT22;3120;48.796;9.796;2023-12-14T07:01:11;6.00;99.90
6174;DHT22;3120;48.796;9.796;2023-12-14T07:03:40;6.00;99.90
6174;DHT22;3120;48.796;9.796;2023-12-14T07:06:06;6.10;99.90
6174;DHT22;3120;48.796;9.796;2023-12-14T07:08:31;6.00;99.90
6174;DHT22;3120;48.796;9.796;2023-12-14T07:10:57;5.90;99.90
6174;DHT22;3120;48.796;9.796;2023-12-14T07:13:24;5.80;99.90
6174;DHT22;3120;48.796;9.796;2023-12-14T07:15:49;5.80;99.90
6174;DHT22;3120;48.796;9.796;2023-12-14T07:18:15;5.80;99.90
6174;DHT22;3120;48.796;9.796;2023-12-14T07:20:41;5.80;99.90
6174;DHT22;3120;48.796;9.796;2023-12-14T07:23:06;5.90;99.90
6174;DHT22;3120;48.796;9.796;2023-12-14T07:25:32;5.90;99.90
6174;DHT22;3120;48.796;9.796;2023-12-14T07:27:57;6.00;99.90
6174;DHT22;3120;48.796;9.796;2023-12-14T07:30:23;6.00;99.90
6174;DHT22;3120;48.796;9.796;2023-12-14T07:32:48;6.10;99.90
6174;DHT22;3120;48.796;9.796;2023-12-14T07:35:14;6.10;99.90
6174;DHT22;3120;48.796;9.796;2023-12-14T07:37:39;6.10;99.90
6174;DHT22;3120;48.796;9.796;2023-12-14T07:40:06;6.10;99.90
6174;DHT22;3120;48.796;9.796;2023-12-14T07:42:31;6.10;99.90
6174;DHT22;3120;48.796;9.796;2023-12-14T07:44:57;6.10;99.90
6174;DHT22;3120;48.796;9.796;2023-12-14T07:47:22;6.10;99.90
6174;DHT22;3120;48.796;9.796;2023-12-14T07:49:48;6.10;99.90
6174;DHT22;3120;48.796;9.796;2023-12-14T07:52:14;6.20;99.90
6174;DHT22;3120;48.796;9.796;2023-12-14T07:54:40;6.20;99.90
6174;DHT22;3120;48.796;9.796;2023-12-14T07:57:05;6.20;99.90
6174;DHT22;3120;48.796;9.796;2023-12-14T07:59:31;6.20;99.90
6174;DHT22;3120;48.796;9.796;2023-12-14T08:01:56;6.20;99.90
6174;DHT22;3120;48.796;9.796;2023-12-14T08:04:22;6.20;99.90
6174;DHT22;3120;48.796;9.796;2023-12-14T08:06:48;6.30;99.90
6174;DHT22;3120;48.796;9.796;2023-12-14T08:09:14;6.30;99.90
6174;DHT22;3120;48.796;9.796;2023-12-14T08:11:40;6.30;99.90
6174;DHT22;3120;48.796;9.796;2023-12-14T08:14:06;6.30;99.90
6174;DHT22;3120;48.796;9.796;2023-12-14T08:16:32;6.40;99.90
6174;DHT22;3120;48.796;9.796;2023-12-14T08:18:57;6.40;99.90
6174;DHT22;3120;48.796;9.796;2023-12-14T08:21:23;6.30;99.90
6174;DHT22;3120;48.796;9.796;2023-12-14T08:23:49;6.40;99.90
6174;DHT22;3120;48.796;9.796;2023-12-14T08:26:14;6.50;99.90
6174;DHT22;3120;48.796;9.796;2023-12-14T08:28:40;6.60;99.90
6174;DHT22;3120;48.796;9.796;2023-12-14T08:31:05;6.70;99.90
6174;DHT22;3120;48.796;9.796;2023-12-14T08:33:31;6.80;99.90
6174;DHT22;3120;48.796;9.796;2023-12-14T08:35:57;6.80;99.90
6174;DHT22;3120;48.796;9.796;2023-12-14T08:38:23;6.90;99.90
6174;DHT22;3120;48.796;9.796;2023-12-14T08:40:48;6.90;99.90
6174;DHT22;3120;48.796;9.796;2023-12-14T08:43:14;7.00;99.90
6174;DHT22;3120;48.796;9.796;2023-12-14T08:45:40;7.00;99.90
6174;DHT22;3120;48.796;9.796;2023-12-14T08:48:06;7.10;99.90
6174;DHT22;3120;48.796;9.796;2023-12-14T08:50:31;7.20;99.90
6174;DHT22;3120;48.796;9.796;2023-12-14T08:52:57;7.10;99.90
6174;DHT22;3120;48.796;9.796;2023-12-14T08:55:26;7.10;99.90
6174;DHT22;3120;48.796;9.796;2023-12-14T08:57:52;7.20;99.90
6174;DHT22;3120;48.796;9.796;2023-12-14T09:00:18;7.20;99.90
6174;DHT22;3120;48.796;9.796;2023-12-14T09:02:44;7.20;99.90
6174;DHT22;3120;48.796;9.796;2023-12-14T09:05:15;7.20;99.90
6174;DHT22;3120;48.796;9.796;2023-12-14T09:07:41;7.20;99.90
6174;DHT22;3120;48.796;9.796;2023-12-14T09:10:08;7.20;99.90
6174;DHT22;3120;48.796;9.796;2023-12-14T09:12:33;7.30;99.90
6174;DHT22;3120;48.796;9.796;2023-12-14T09:15:00;7.30;99.90
6174;DHT22;3120;48.796;9.796;2023-12-14T09:17:25;7.20;99.90
6174;DHT22;3120;48.796;9.796;2023-12-14T09:19:51;7.20;99.90
6174;DHT22;3120;48.796;9.796;2023-12-14T09:22:17;7.30;99.90
6174;DHT22;3120;48.796;9.796;2023-12-14T09:24:43;7.30;99.90
6174;DHT22;3120;48.796;9.796;2023-12-14T09:27:08;7.40;99.90
6174;DHT22;3120;48.796;9.796;2023-12-14T09:29:34;7.40;99.90
6174;DHT22;3120;48.796;9.796;2023-12-14T09:32:00;7.40;99.90
6174;DHT22;3120;48.796;9.796;2023-12-14T09:34:25;7.40;99.90
6174;DHT22;3120;48.796;9.796;2023-12-14T09:36:51;7.40;99.90
6174;DHT22;3120;48.796;9.796;2023-12-14T09:39:17;7.40;99.90
6174;DHT22;3120;48.796;9.796;2023-12-14T09:41:44;7.40;99.90
6174;DHT22;3120;48.796;9.796;2023-12-14T09:44:11;7.50;99.90
6174;DHT22;3120;48.796;9.796;2023-12-14T09:46:38;7.60;99.90
6174;DHT22;3120;48.796;9.796;2023-12-14T09:49:04;7.70;99.90
6174;DHT22;3120;48.796;9.796;2023-12-14T09:51:30;7.80;99.90
6174;DHT22;3120;48.796;9.796;2023-12-14T09:53:56;7.90;99.90
6174;DHT22;3120;48.796;9.796;2023-12-14T09:56:27;7.90;99.90
6174;DHT22;3120;48.796;9.796;2023-12-14T09:58:53;7.90;99.90
6174;DHT22;3120;48.796;9.796;2023-12-14T10:01:26;7.90;99.90
6174;DHT22;3120;48.796;9.796;2023-12-14T10:04:13;7.70;99.90
6174;DHT22;3120;48.796;9.796;2023-12-14T10:06:40;7.90;99.90
6174;DHT22;3120;48.796;9.796;2023-12-14T10:09:06;8.00;99.90
6174;DHT22;3120;48.796;9.796;2023-12-14T10:11:36;8.10;99.90
6174;DHT22;3120;48.796;9.796;2023-12-14T10:14:02;8.00;99.90
6174;DHT22;3120;48.796;9.796;2023-12-14T10:16:30;8.00;99.90
6174;DHT22;3120;48.796;9.796;2023-12-14T10:18:57;8.00;99.90
6174;DHT22;3120;48.796;9.796;2023-12-14T10:21:24;8.00;99.90
6174;DHT22;3120;48.796;9.796;2023-12-14T10:23:50;8.00;99.90
6174;DHT22;3120;48.796;9.796;2023-12-14T10:26:15;8.00;99.90
6174;DHT22;3120;48.796;9.796;2023-12-14T10:28:41;8.10;99.90
6174;DHT22;3120;48.796;9.796;2023-12-14T10:31:07;8.20;99.90
6174;DHT22;3120;48.796;9.796;2023-12-14T10:33:35;8.20;99.90
6174;DHT22;3120;48.796;9.796;2023-12-14T10:36:01;8.30;99.90
6174;DHT22;3120;48.796;9.796;2023-12-14T10:38:29;8.20;99.90
6174;DHT22;3120;48.796;9.796;2023-12-14T10:40:55;8.20;99.90
6174;DHT22;3120;48.796;9.796;2023-12-14T10:43:22;8.20;99.90
6174;DHT22;3120;48.796;9.796;2023-12-14T10:45:48;8.20;99.90
6174;DHT22;3120;48.796;9.796;2023-12-14T10:48:13;8.30;99.90
6174;DHT22;3120;48.796;9.796;2023-12-14T10:50:42;8.30;99.90
6174;DHT22;3120;48.796;9.796;2023-12-14T10:53:08;8.30;99.90
6174;DHT22;3120;48.796;9.796;2023-12-14T10:55:41;8.30;99.90
6174;DHT22;3120;48.796;9.796;2023-12-14T10:58:08;8.20;99.90
6174;DHT22;3120;48.796;9.796;2023-12-14T11:00:34;8.10;99.90
6174;DHT22;3120;48.796;9.796;2023-12-14T11:03:00;8.00;99.90
6174;DHT22;3120;48.796;9.796;2023-12-14T11:05:27;7.80;99.90
6174;DHT22;3120;48.796;9.796;2023-12-14T11:08:00;7.70;99.90
6174;DHT22;3120;48.796;9.796;2023-12-14T11:13:09;7.40;99.90
6174;DHT22;3120;48.796;9.796;2023-12-14T11:15:40;7.30;99.90
6174;DHT22;3120;48.796;9.796;2023-12-14T11:23:12;7.10;99.90
6174;DHT22;3120;48.796;9.796;2023-12-14T11:25:40;7.20;99.90
6174;DHT22;3120;48.796;9.796;2023-12-14T11:28:07;7.20;99.90
6174;DHT22;3120;48.796;9.796;2023-12-14T11:30:34;7.30;99.90
6174;DHT22;3120;48.796;9.796;2023-12-14T11:33:00;7.40;99.90
6174;DHT22;3120;48.796;9.796;2023-12-14T11:35:26;7.50;99.90
6174;DHT22;3120;48.796;9.796;2023-12-14T11:37:51;7.50;99.90
6174;DHT22;3120;48.796;9.796;2023-12-14T11:40:18;7.50;99.90
6174;DHT22;3120;48.796;9.796;2023-12-14T11:43:04;7.50;99.90
6174;DHT22;3120;48.796;9.796;2023-12-14T11:50:48;7.60;99.90
6174;DHT22;3120;48.796;9.796;2023-12-14T11:53:14;7.60;99.90
6174;DHT22;3120;48.796;9.796;2023-12-14T11:55:41;7.60;99.90
6174;DHT22;3120;48.796;9.796;2023-12-14T11:58:08;7.60;99.90
6174;DHT22;3120;48.796;9.796;2023-12-14T12:00:34;7.60;99.90
6174;DHT22;3120;48.796;9.796;2023-12-14T12:03:17;7.80;99.90
6174;DHT22;3120;48.796;9.796;2023-12-14T12:05:45;7.90;99.90
6174;DHT22;3120;48.796;9.796;2023-12-14T12:08:12;8.00;99.90
6174;DHT22;3120;48.796;9.796;2023-12-14T12:10:42;8.10;99.90
6174;DHT22;3120;48.796;9.796;2023-12-14T12:13:13;8.30;99.90
6174;DHT22;3120;48.796;9.796;2023-12-14T12:15:39;8.50;99.90
6174;DHT22;3120;48.796;9.796;2023-12-14T12:18:07;8.50;99.90
6174;DHT22;3120;48.796;9.796;2023-12-14T12:20:33;8.60;99.90
6174;DHT22;3120;48.796;9.796;2023-12-14T12:22:59;8.50;99.90
6174;DHT22;3120;48.796;9.796;2023-12-14T12:25:24;8.40;99.90
6174;DHT22;3120;48.796;9.796;2023-12-14T12:27:52;8.40;99.90
6174;DHT22;3120;48.796;9.796;2023-12-14T12:30:17;8.30;99.90
6174;DHT22;3120;48.796;9.796;2023-12-14T12:32:43;8.20;99.90
6174;DHT22;3120;48.796;9.796;2023-12-14T12:35:09;8.20;99.90
6174;DHT22;3120;48.796;9.796;2023-12-14T12:37:34;8.20;99.90
6174;DHT22;3120;48.796;9.796;2023-12-14T12:40:00;8.20;99.90
6174;DHT22;3120;48.796;9.796;2023-12-14T12:42:26;8.20;99.90
6174;DHT22;3120;48.796;9.796;2023-12-14T12:44:52;8.20;99.90
6174;DHT22;3120;48.796;9.796;2023-12-14T12:47:17;8.20;99.90
6174;DHT22;3120;48.796;9.796;2023-12-14T12:49:43;8.20;99.90
6174;DHT22;3120;48.796;9.796;2023-12-14T12:52:09;8.20;99.90
6174;DHT22;3120;48.796;9.796;2023-12-14T12:54:35;8.20;99.90
6174;DHT22;3120;48.796;9.796;2023-12-14T12:57:00;8.20;99.90
6174;DHT22;3120;48.796;9.796;2023-12-14T12:59:26;8.20;99.90
6174;DHT22;3120;48.796;9.796;2023-12-14T13:01:52;8.20;99.90
6174;DHT22;3120;48.796;9.796;2023-12-14T13:04:21;8.20;99.90
6174;DHT22;3120;48.796;9.796;2023-12-14T13:06:48;8.30;99.90
6174;DHT22;3120;48.796;9.796;2023-12-14T13:09:17;8.20;99.90
6174;DHT22;3120;48.796;9.796;2023-12-14T13:11:44;8.30;99.90
6174;DHT22;3120;48.796;9.796;2023-12-14T13:14:10;8.30;99.90
6174;DHT22;3120;48.796;9.796;2023-12-14T13:16:36;8.20;99.90
6174;DHT22;3120;48.796;9.796;2023-12-14T13:19:03;8.20;99.90
6174;DHT22;3120;48.796;9.796;2023-12-14T13:21:32;8.10;99.90
6174;DHT22;3120;48.796;9.796;2023-12-14T13:24:01;8.10;99.90
6174;DHT22;3120;48.796;9.796;2023-12-14T13:26:27;8.20;99.90
6174;DHT22;3120;48.796;9.796;2023-12-14T13:28:53;8.20;99.90
6174;DHT22;3120;48.796;9.796;2023-12-14T13:31:19;8.20;99.90
6174;DHT22;3120;48.796;9.796;2023-12-14T13:33:48;8.30;99.90
6174;DHT22;3120;48.796;9.796;2023-12-14T13:36:15;8.30;99.90
6174;DHT22;3120;48.796;9.796;2023-12-14T13:38:41;8.30;99.90
6174;DHT22;3120;48.796;9.796;2023-12-14T13:41:10;8.30;99.90
6174;DHT22;3120;48.796;9.796;2023-12-14T13:43:35;8.30;99.90
6174;DHT22;3120;48.796;9.796;2023-12-14T13:46:01;8.30;99.90
6174;DHT22;3120;48.796;9.796;2023-12-14T13:48:27;8.30;99.90
6174;DHT22;3120;48.796;9.796;2023-12-14T13:50:54;8.30;99.90
6174;DHT22;3120;48.796;9.796;2023-12-14T13:53:20;8.20;99.90
6174;DHT22;3120;48.796;9.796;2023-12-14T13:55:46;8.10;99.90
6174;DHT22;3120;48.796;9.796;2023-12-14T13:58:12;8.00;99.90
6174;DHT22;3120;48.796;9.796;2023-12-14T14:00:38;8.00;99.90
6174;DHT22;3120;48.796;9.796;2023-12-14T14:03:04;7.90;99.90
6174;DHT22;3120;48.796;9.796;2023-12-14T14:05:33;7.70;99.90
6174;DHT22;3120;48.796;9.796;2023-12-14T14:07:59;7.50;99.90
6174;DHT22;3120;48.796;9.796;2023-12-14T14:10:25;7.30;99.90
6174;DHT22;3120;48.796;9.796;2023-12-14T14:12:51;7.10;99.90
6174;DHT22;3120;48.796;9.796;2023-12-14T14:15:17;7.00;99.90
6174;DHT22;3120;48.796;9.796;2023-12-14T14:17:42;6.90;99.90
6174;DHT22;3120;48.796;9.796;2023-12-14T14:20:08;6.90;99.90
6174;DHT22;3120;48.796;9.796;2023-12-14T14:22:36;6.80;99.90
6174;DHT22;3120;48.796;9.796;2023-12-14T14:25:03;6.80;99.90
6174;DHT22;3120;48.796;9.796;2023-12-14T14:27:30;6.80;99.90
6174;DHT22;3120;48.796;9.796;2023-12-14T14:29:56;6.70;99.90
6174;DHT22;3120;48.796;9.796;2023-12-14T14:32:21;6.70;99.90
6174;DHT22;3120;48.796;9.796;2023-12-14T14:34:47;6.70;99.90
6174;DHT22;3120;48.796;9.796;2023-12-14T14:37:12;6.70;99.90
6174;DHT22;3120;48.796;9.796;2023-12-14T14:39:38;6.80;99.90
6174;DHT22;3120;48.796;9.796;2023-12-14T14:42:05;6.70;99.90
6174;DHT22;3120;48.796;9.796;2023-12-14T14:44:31;6.70;99.90
6174;DHT22;3120;48.796;9.796;2023-12-14T14:46:57;6.70;99.90
6174;DHT22;3120;48.796;9.796;2023-12-14T14:49:22;6.70;99.90
6174;DHT22;3120;48.796;9.796;2023-12-14T14:51:48;6.60;99.90
6174;DHT22;3120;48.796;9.796;2023-12-14T14:54:13;6.70;99.90
6174;DHT22;3120;48.796;9.796;2023-12-14T14:56:40;6.70;99.90
6174;DHT22;3120;48.796;9.796;2023-12-14T14:59:06;6.60;99.90
6174;DHT22;3120;48.796;9.796;2023-12-14T15:01:32;6.50;99.90
6174;DHT22;3120;48.796;9.796;2023-12-14T15:03:58;6.50;99.90
6174;DHT22;3120;48.796;9.796;2023-12-14T15:06:25;6.50;99.90
6174;DHT22;3120;48.796;9.796;2023-12-14T15:08:51;6.50;99.90
6174;DHT22;3120;48.796;9.796;2023-12-14T15:11:16;7.00;99.90
6174;DHT22;3120;48.796;9.796;2023-12-14T15:24:58;6.50;99.90
6174;DHT22;3120;48.796;9.796;2023-12-14T15:27:25;6.50;99.90
6174;DHT22;3120;48.796;9.796;2023-12-14T15:29:51;6.50;99.90
6174;DHT22;3120;48.796;9.796;2023-12-14T15:32:19;6.50;99.90
6174;DHT22;3120;48.796;9.796;2023-12-14T15:34:44;6.50;99.90
6174;DHT22;3120;48.796;9.796;2023-12-14T15:37:10;6.50;99.90
6174;DHT22;3120;48.796;9.796;2023-12-14T15:39:35;6.40;99.90
6174;DHT22;3120;48.796;9.796;2023-12-14T15:42:01;6.40;99.90
6174;DHT22;3120;48.796;9.796;2023-12-14T15:44:26;6.40;99.90
6174;DHT22;3120;48.796;9.796;2023-12-14T15:46:52;6.40;99.90
6174;DHT22;3120;48.796;9.796;2023-12-14T15:49:17;6.40;99.90
6174;DHT22;3120;48.796;9.796;2023-12-14T15:51:43;6.40;99.90
6174;DHT22;3120;48.796;9.796;2023-12-14T15:54:09;6.40;99.90
6174;DHT22;3120;48.796;9.796;2023-12-14T15:56:35;6.40;99.90
6174;DHT22;3120;48.796;9.796;2023-12-14T15:59:00;6.40;99.90
6174;DHT22;3120;48.796;9.796;2023-12-14T16:01:26;6.40;99.90
6174;DHT22;3120;48.796;9.796;2023-12-14T16:03:51;6.40;99.90
6174;DHT22;3120;48.796;9.796;2023-12-14T16:06:17;6.50;99.90
6174;DHT22;3120;48.796;9.796;2023-12-14T16:08:43;6.40;99.90
6174;DHT22;3120;48.796;9.796;2023-12-14T16:11:10;6.40;99.90
6174;DHT22;3120;48.796;9.796;2023-12-14T16:13:36;6.50;99.90
6174;DHT22;3120;48.796;9.796;2023-12-14T16:16:03;6.50;99.90
6174;DHT22;3120;48.796;9.796;2023-12-14T16:18:29;6.50;99.90
6174;DHT22;3120;48.796;9.796;2023-12-14T16:20:54;6.40;99.90
6174;DHT22;3120;48.796;9.796;2023-12-14T16:23:20;6.40;99.90
6174;DHT22;3120;48.796;9.796;2023-12-14T16:39:13;6.50;99.90
6174;DHT22;3120;48.796;9.796;2023-12-14T16:41:39;6.50;99.90
6174;DHT22;3120;48.796;9.796;2023-12-14T16:44:04;6.50;99.90
6174;DHT22;3120;48.796;9.796;2023-12-14T16:46:30;6.50;99.90